Time;durP1;ratioP1;P1;durP2;ratioP2;P2;SDS_P1;SDS_P2;PMS_P1;PMS_P2;Temp;Humidity;BMP_temperature;BMP_pressure;BME280_temperature;BME280_humidity;BME280_pressure;Samples;Min_cycle;Max_cycle;Signal;HPM_P1;HPM_P2
2023/12/31 00:00:10;;;;;;;4.70;2.95;;;;;;;5.04;96.84;98982.25;332359;29;12104;-81
2023/12/31 00:00:22;;;;;;;4.88;3.00;;;;;;;5.08;96.97;98985.63;335007;29;5396;-79
2023/12/31 00:00:35;;;;;;;4.45;2.70;;;;;;;5.12;96.11;98985.50;331988;29;12832;-78
2023/12/31 00:00:47;;;;;;;6.55;2.53;;;;;;;5.14;95.97;98983.75;334889;29;5307;-78
2023/12/31 00:00:59;;;;;;;6.72;2.65;;;;;;;5.17;96.24;98991.44;332657;29;12334;-78
2023/12/31 00:01:11;;;;;;;4.75;2.50;;;;;;;5.18;95.86;98990.53;333589;29;4606;-78
2023/12/31 00:01:24;;;;;;;4.30;2.40;;;;;;;5.09;96.74;98990.75;333848;29;4780;-79
2023/12/31 00:01:37;;;;;;;4.95;2.40;;;;;;;4.91;97.41;98986.81;331013;29;19305;-78
2023/12/31 00:01:49;;;;;;;5.07;2.63;;;;;;;4.79;98.31;98990.50;331187;29;6205;-78
2023/12/31 00:02:01;;;;;;;4.57;2.63;;;;;;;4.75;99.16;98981.13;333592;29;4711;-79
2023/12/31 00:02:13;;;;;;;4.60;2.70;;;;;;;4.77;99.19;98979.38;334233;29;5088;-78
2023/12/31 00:02:25;;;;;;;4.43;2.60;;;;;;;4.82;99.71;98986.16;332123;29;17976;-78
2023/12/31 00:02:37;;;;;;;4.63;2.55;;;;;;;4.86;99.92;98987.78;334894;29;4705;-80
2023/12/31 00:02:49;;;;;;;3.88;2.45;;;;;;;4.88;99.31;98986.03;333713;29;13646;-78
2023/12/31 00:03:02;;;;;;;3.70;2.50;;;;;;;4.93;99.93;98979.03;332376;29;16664;-78
2023/12/31 00:03:14;;;;;;;3.22;2.40;;;;;;;4.94;99.39;98983.31;334993;29;4557;-78
2023/12/31 00:03:26;;;;;;;6.78;2.50;;;;;;;4.92;98.59;98983.34;332673;28;16575;-79
2023/12/31 00:03:38;;;;;;;7.20;2.83;;;;;;;4.94;98.48;98981.59;335161;28;5496;-79
2023/12/31 00:03:50;;;;;;;6.43;2.80;;;;;;;4.95;98.43;98988.44;332733;28;16463;-79
2023/12/31 00:04:03;;;;;;;3.92;2.63;;;;;;;4.90;98.21;98982.53;335431;28;5649;-78
2023/12/31 00:04:15;;;;;;;4.80;2.60;;;;;;;4.89;97.65;98988.56;327452;29;12746;-79
2023/12/31 00:04:27;;;;;;;9.60;3.08;;;;;;;4.84;97.48;98986.97;333960;29;4661;-78
2023/12/31 00:04:39;;;;;;;9.60;3.35;;;;;;;4.79;97.66;98984.50;334099;29;5486;-78
2023/12/31 00:04:51;;;;;;;7.45;3.38;;;;;;;4.75;97.88;98978.56;332627;29;18796;-78
2023/12/31 00:05:05;;;;;;;6.10;3.42;;;;;;;4.76;97.53;98977.66;335035;29;4573;-78
2023/12/31 00:05:17;;;;;;;7.65;3.65;;;;;;;4.72;97.47;98976.03;332367;29;19279;-78
2023/12/31 00:05:29;;;;;;;7.70;4.38;;;;;;;4.71;97.67;98979.50;335194;29;4764;-78
2023/12/31 00:05:41;;;;;;;6.45;4.22;;;;;;;4.63;97.16;98978.78;332186;29;16267;-78
2023/12/31 00:05:53;;;;;;;5.60;3.70;;;;;;;4.72;97.46;98978.59;330560;29;4736;-78
2023/12/31 00:06:05;;;;;;;5.53;3.30;;;;;;;4.77;97.74;98979.38;335269;29;4688;-78
2023/12/31 00:06:18;;;;;;;5.90;3.35;;;;;;;4.81;97.11;98977.59;332487;29;18060;-80
2023/12/31 00:06:29;;;;;;;5.65;3.33;;;;;;;4.81;96.92;98980.16;337500;28;5498;-80
2023/12/31 00:06:41;;;;;;;4.95;3.00;;;;;;;4.75;96.94;98978.56;335800;28;18188;-80
2023/12/31 00:06:54;;;;;;;4.82;2.88;;;;;;;4.74;96.53;98976.84;337882;28;5304;-81
2023/12/31 00:07:06;;;;;;;5.47;2.97;;;;;;;4.75;96.65;98977.72;336939;28;4608;-80
2023/12/31 00:07:19;;;;;;;6.30;3.35;;;;;;;4.73;96.45;98977.72;334682;28;17589;-80
2023/12/31 00:07:31;;;;;;;6.78;3.70;;;;;;;4.64;95.73;98975.31;333868;28;16644;-80
2023/12/31 00:07:43;;;;;;;6.25;3.47;;;;;;;4.63;94.94;98970.19;336743;28;4724;-81
2023/12/31 00:07:55;;;;;;;9.80;3.40;;;;;;;4.63;95.20;98973.66;336628;28;5280;-81
2023/12/31 00:08:07;;;;;;;10.38;3.50;;;;;;;4.68;95.69;98973.53;333834;28;18068;-82
2023/12/31 00:08:20;;;;;;;9.05;3.30;;;;;;;4.70;96.54;98970.06;336915;28;5136;-81
2023/12/31 00:08:32;;;;;;;5.07;3.05;;;;;;;4.75;95.84;98975.97;333861;28;18269;-80
2023/12/31 00:08:44;;;;;;;5.97;2.92;;;;;;;4.69;95.07;98970.94;337138;28;4641;-80
2023/12/31 00:08:56;;;;;;;6.80;2.85;;;;;;;4.56;94.54;98972.06;333992;28;13798;-81
2023/12/31 00:09:08;;;;;;;7.00;3.10;;;;;;;4.58;94.25;98978.03;335362;29;4556;-81
2023/12/31 00:09:20;;;;;;;6.25;3.28;;;;;;;4.62;94.81;98973.66;335669;29;4561;-81
2023/12/31 00:09:32;;;;;;;6.60;3.38;;;;;;;4.59;95.31;98970.28;334107;29;17816;-81
2023/12/31 00:09:44;;;;;;;6.22;3.30;;;;;;;4.62;95.64;98977.09;336501;29;5405;-81
2023/12/31 00:09:56;;;;;;;6.30;3.10;;;;;;;4.67;95.97;98972.72;336878;28;4550;-81
2023/12/31 00:10:08;;;;;;;6.70;3.03;;;;;;;4.71;95.42;98966.63;329623;28;14056;-81
2023/12/31 00:10:21;;;;;;;6.78;3.40;;;;;;;4.72;95.74;98970.88;334994;29;4563;-82
2023/12/31 00:10:33;;;;;;;6.43;3.42;;;;;;;4.75;95.80;98967.41;331410;29;18770;-80
2023/12/31 00:10:45;;;;;;;6.50;3.40;;;;;;;4.77;95.73;98969.06;333882;29;4746;-80
2023/12/31 00:11:00;;;;;;;6.28;3.42;;;;;;;4.74;95.97;98969.13;331133;29;18261;-81
2023/12/31 00:11:12;;;;;;;8.02;3.72;;;;;;;4.73;95.54;98972.59;331796;29;16192;-81
2023/12/31 00:11:24;;;;;;;10.02;4.00;;;;;;;4.72;95.63;98968.31;329422;29;4598;-81
2023/12/31 00:11:36;;;;;;;8.50;3.85;;;;;;;4.72;96.18;98970.88;333692;29;5061;-81
2023/12/31 00:11:48;;;;;;;6.88;3.63;;;;;;;4.72;95.67;98975.19;328264;29;17873;-80
2023/12/31 00:12:00;;;;;;;7.75;3.80;;;;;;;4.68;95.98;98974.38;333306;29;5328;-79
2023/12/31 00:12:12;;;;;;;8.65;4.13;;;;;;;4.71;96.59;98966.63;331109;29;16328;-78
2023/12/31 00:12:24;;;;;;;8.13;3.65;;;;;;;4.74;96.10;98966.53;334259;29;5376;-78
2023/12/31 00:12:36;;;;;;;7.25;3.70;;;;;;;4.78;96.23;98975.06;335495;29;4702;-79
2023/12/31 00:12:48;;;;;;;7.00;3.90;;;;;;;4.83;96.66;98970.69;333682;28;18322;-80
2023/12/31 00:13:00;;;;;;;7.78;4.10;;;;;;;4.85;96.04;98965.47;336925;29;5311;-80
2023/12/31 00:13:12;;;;;;;8.10;4.15;;;;;;;4.86;95.54;98962.88;331044;28;18259;-84
2023/12/31 00:13:25;;;;;;;8.00;3.83;;;;;;;4.88;96.11;98970.56;335531;28;4598;-83
2023/12/31 00:13:37;;;;;;;7.75;3.40;;;;;;;4.88;96.19;98965.44;333161;28;4733;-83
2023/12/31 00:13:49;;;;;;;7.88;3.35;;;;;;;4.87;95.91;98963.72;336076;28;5027;-83
2023/12/31 00:14:01;;;;;;;8.15;3.25;;;;;;;4.89;96.13;98969.69;335043;29;4584;-84
2023/12/31 00:14:13;;;;;;;8.50;3.45;;;;;;;4.88;96.12;98965.44;333478;28;9355;-84
2023/12/31 00:14:25;;;;;;;7.32;3.40;;;;;;;4.82;96.56;98968.13;331092;29;4523;-81
2023/12/31 00:14:37;;;;;;;7.00;3.63;;;;;;;4.70;97.31;98967.47;333141;29;4677;-83
2023/12/31 00:14:49;;;;;;;6.78;3.42;;;;;;;4.65;97.60;98964.16;330460;29;18146;-82
2023/12/31 00:15:03;;;;;;;7.07;3.50;;;;;;;4.65;98.13;98959.03;333215;29;4589;-83
2023/12/31 00:15:15;;;;;;;8.05;3.70;;;;;;;4.61;98.23;98957.38;330551;29;18129;-84
2023/12/31 00:15:27;;;;;;;7.90;3.53;;;;;;;4.56;97.95;98965.16;333450;29;4534;-82
2023/12/31 00:15:39;;;;;;;7.60;3.17;;;;;;;4.60;98.23;98965.97;329466;29;14175;-82
2023/12/31 00:15:51;;;;;;;8.63;3.03;;;;;;;4.64;98.76;98961.63;330970;29;5162;-82
2023/12/31 00:16:04;;;;;;;8.13;2.67;;;;;;;4.67;98.70;98957.25;320310;29;5021;-82
2023/12/31 00:16:16;;;;;;;7.45;2.85;;;;;;;4.58;98.29;98966.00;330050;29;4568;-83
2023/12/31 00:16:28;;;;;;;5.38;2.85;;;;;;;4.59;98.70;98964.28;320289;29;11134;-84
2023/12/31 00:16:40;;;;;;;5.57;2.92;;;;;;;4.59;98.94;98959.97;333056;29;4518;-83
2023/12/31 00:16:52;;;;;;;5.28;2.88;;;;;;;4.60;98.57;98965.97;333550;29;4549;-84
2023/12/31 00:17:04;;;;;;;5.47;3.20;;;;;;;4.60;98.63;98955.66;331260;29;17790;-83
2023/12/31 00:17:16;;;;;;;4.07;3.00;;;;;;;4.57;99.00;98956.59;329346;29;4678;-84
2023/12/31 00:17:28;;;;;;;4.53;2.88;;;;;;;4.56;98.85;98954.03;333423;29;4602;-84
2023/12/31 00:17:40;;;;;;;6.45;3.20;;;;;;;4.46;99.34;98957.66;330255;29;18290;-83
2023/12/31 00:17:52;;;;;;;7.05;3.55;;;;;;;4.37;99.46;98954.38;333051;29;4577;-83
2023/12/31 00:18:04;;;;;;;6.53;3.50;;;;;;;4.26;99.97;98953.72;330685;29;18249;-83
2023/12/31 00:18:17;;;;;;;6.32;3.60;;;;;;;4.29;100.00;98961.41;334300;29;4594;-84
2023/12/31 00:18:29;;;;;;;6.38;3.33;;;;;;;4.23;100.00;98956.38;332108;29;4600;-83
2023/12/31 00:18:41;;;;;;;6.68;3.30;;;;;;;4.27;100.00;98963.16;329402;29;5317;-84
2023/12/31 00:18:53;;;;;;;6.72;3.15;;;;;;;4.28;100.00;98953.72;335125;29;4554;-82
2023/12/31 00:19:05;;;;;;;6.72;3.22;;;;;;;4.31;100.00;98957.09;331130;29;18334;-83
2023/12/31 00:19:18;;;;;;;6.07;3.33;;;;;;;4.29;99.22;98956.25;333556;29;4600;-81
2023/12/31 00:19:30;;;;;;;7.00;3.70;;;;;;;4.33;99.05;98957.91;326965;29;4682;-82
2023/12/31 00:19:42;;;;;;;6.38;3.50;;;;;;;4.40;99.05;98956.06;332764;29;4613;-83
2023/12/31 00:19:54;;;;;;;6.15;3.38;;;;;;;4.45;99.19;98955.97;331235;29;4688;-84
2023/12/31 00:20:07;;;;;;;5.13;3.08;;;;;;;4.47;98.86;98959.38;328422;29;17559;-84
2023/12/31 00:20:19;;;;;;;5.47;3.13;;;;;;;4.35;98.07;98956.16;326427;29;4562;-84
2023/12/31 00:20:31;;;;;;;6.25;3.47;;;;;;;4.40;98.09;98962.03;328661;29;18140;-84
2023/12/31 00:20:43;;;;;;;7.45;3.50;;;;;;;4.42;97.67;98956.88;332226;29;4554;-84
2023/12/31 00:20:55;;;;;;;7.35;3.53;;;;;;;4.43;97.89;98961.16;329553;29;16568;-84
2023/12/31 00:21:07;;;;;;;7.60;3.70;;;;;;;4.48;97.31;98966.22;332228;29;4606;-84
2023/12/31 00:21:19;;;;;;;6.55;3.53;;;;;;;4.52;97.63;98962.69;331785;29;4817;-83
2023/12/31 00:21:31;;;;;;;6.47;3.45;;;;;;;4.50;96.85;98959.31;325100;29;17868;-83
2023/12/31 00:21:43;;;;;;;6.70;3.78;;;;;;;4.40;96.10;98954.31;332634;29;4627;-83
2023/12/31 00:21:55;;;;;;;7.28;4.20;;;;;;;4.35;95.38;98951.00;327116;29;4844;-83
2023/12/31 00:22:08;;;;;;;8.18;4.20;;;;;;;4.35;96.04;98953.56;332946;29;4740;-83
2023/12/31 00:22:20;;;;;;;10.40;3.85;;;;;;;4.34;95.72;98956.16;331242;29;18084;-84
2023/12/31 00:22:32;;;;;;;8.93;3.65;;;;;;;4.32;96.24;98956.19;332701;29;4619;-83
2023/12/31 00:22:45;;;;;;;6.75;3.58;;;;;;;4.35;96.25;98950.16;329703;29;10671;-83
2023/12/31 00:22:57;;;;;;;6.53;3.42;;;;;;;4.36;97.04;98951.84;334091;29;4608;-83
2023/12/31 00:23:11;;;;;;;7.15;3.38;;;;;;;4.39;97.03;98960.34;332157;29;4899;-83
2023/12/31 00:23:24;;;;;;;7.80;3.17;;;;;;;4.44;97.01;98952.53;329873;29;17923;-82
2023/12/31 00:23:36;;;;;;;6.68;3.00;;;;;;;4.50;96.76;98954.16;330029;29;6585;-83
2023/12/31 00:23:48;;;;;;;6.95;3.13;;;;;;;4.55;97.08;98955.78;332109;29;4684;-84
2023/12/31 00:24:00;;;;;;;6.57;3.10;;;;;;;4.62;97.36;98953.06;331815;29;4624;-84
2023/12/31 00:24:15;;;;;;;6.13;3.10;;;;;;;4.66;97.12;98955.56;328768;29;18095;-83
2023/12/31 00:24:27;;;;;;;6.55;2.95;;;;;;;4.72;96.61;98955.44;323842;29;16303;-84
2023/12/31 00:24:39;;;;;;;5.93;2.90;;;;;;;4.74;96.45;98952.81;332909;29;4587;-83
2023/12/31 00:24:54;;;;;;;6.43;3.05;;;;;;;4.75;96.59;98957.97;330479;29;17089;-83
2023/12/31 00:25:07;;;;;;;6.22;2.90;;;;;;;4.75;96.43;98960.53;330287;29;17726;-83
2023/12/31 00:25:19;;;;;;;6.97;2.83;;;;;;;4.74;96.26;98956.25;332190;29;4538;-84
2023/12/31 00:25:31;;;;;;;6.85;2.90;;;;;;;4.71;96.53;98958.91;330079;29;5088;-83
2023/12/31 00:25:43;;;;;;;7.03;3.03;;;;;;;4.69;97.07;98955.50;331896;29;4563;-84
2023/12/31 00:25:55;;;;;;;7.82;3.13;;;;;;;4.68;96.98;98951.22;327702;29;4704;-83
2023/12/31 00:26:07;;;;;;;6.88;2.60;;;;;;;4.68;96.43;98961.50;329418;29;17504;-83
2023/12/31 00:26:19;;;;;;;5.97;2.63;;;;;;;4.70;96.48;98954.59;330958;29;4566;-84
2023/12/31 00:26:31;;;;;;;4.90;2.72;;;;;;;4.68;97.12;98956.38;324251;29;17454;-84
2023/12/31 00:26:43;;;;;;;4.90;2.92;;;;;;;4.68;96.86;98956.38;330759;29;4595;-83
2023/12/31 00:26:55;;;;;;;5.57;3.20;;;;;;;4.67;96.97;98954.69;331181;29;4583;-83
2023/12/31 00:27:07;;;;;;;6.63;3.50;;;;;;;4.68;96.78;98958.09;328048;29;18037;-84
2023/12/31 00:27:20;;;;;;;8.93;3.47;;;;;;;4.66;96.75;98955.56;331583;29;4907;-81
2023/12/31 00:27:32;;;;;;;8.45;3.40;;;;;;;4.66;97.90;98955.56;327354;29;5061;-82
2023/12/31 00:27:44;;;;;;;5.90;3.33;;;;;;;4.64;97.44;98954.72;331251;29;4570;-82
2023/12/31 00:27:56;;;;;;;6.55;3.30;;;;;;;4.58;97.98;98960.00;330901;29;4573;-82
2023/12/31 00:28:08;;;;;;;6.65;3.60;;;;;;;4.43;97.89;98958.59;326788;29;18285;-83
2023/12/31 00:28:20;;;;;;;5.85;3.38;;;;;;;4.40;98.45;98954.31;330800;29;4579;-82
2023/12/31 00:28:32;;;;;;;5.03;3.00;;;;;;;4.40;98.90;98954.31;329873;29;16584;-83
2023/12/31 00:28:44;;;;;;;5.35;3.00;;;;;;;4.47;99.12;98951.66;329512;29;4676;-83
2023/12/31 00:28:56;;;;;;;5.47;3.10;;;;;;;4.53;98.90;98954.13;335087;29;4539;-83
2023/12/31 00:29:08;;;;;;;5.32;2.90;;;;;;;4.56;98.44;98954.88;330020;29;17841;-83
2023/12/31 00:29:20;;;;;;;5.15;2.78;;;;;;;4.59;98.42;98948.84;334412;29;4610;-83
2023/12/31 00:29:36;;;;;;;5.15;2.75;;;;;;;4.57;98.02;98950.59;330922;29;17275;-82
2023/12/31 00:29:49;;;;;;;4.80;2.67;;;;;;;4.61;97.44;98954.81;330926;29;17705;-83
2023/12/31 00:30:01;;;;;;;4.22;2.40;;;;;;;4.64;97.70;98949.59;331431;29;4597;-84
2023/12/31 00:30:13;;;;;;;4.53;2.53;;;;;;;4.62;97.46;98950.50;328853;29;13603;-83
2023/12/31 00:30:27;;;;;;;4.75;2.70;;;;;;;4.61;97.68;98952.22;332379;29;4576;-84
2023/12/31 00:30:39;;;;;;;3.80;2.45;;;;;;;4.57;97.58;98954.00;329644;29;17517;-84
2023/12/31 00:30:51;;;;;;;3.83;2.38;;;;;;;4.52;97.17;98952.41;332013;29;4734;-83
2023/12/31 00:31:03;;;;;;;4.43;2.53;;;;;;;4.49;97.40;98942.19;330018;29;17963;-82
2023/12/31 00:31:15;;;;;;;5.97;2.75;;;;;;;4.46;97.39;98952.53;333761;29;4599;-82
2023/12/31 00:31:28;;;;;;;5.43;2.78;;;;;;;4.38;97.28;98945.78;329929;29;18056;-84
2023/12/31 00:31:40;;;;;;;4.43;2.55;;;;;;;4.34;97.35;98944.16;327687;29;4651;-83
2023/12/31 00:31:52;;;;;;;4.63;2.58;;;;;;;4.30;97.56;98945.06;333015;29;4571;-83
2023/12/31 00:32:04;;;;;;;5.05;2.63;;;;;;;4.24;97.06;98942.63;326998;29;18156;-82
2023/12/31 00:32:16;;;;;;;5.03;2.80;;;;;;;4.17;96.48;98943.63;332097;29;5429;-83
2023/12/31 00:32:29;;;;;;;4.40;2.92;;;;;;;4.13;96.46;98942.00;328732;29;18540;-81
2023/12/31 00:32:41;;;;;;;4.80;3.10;;;;;;;4.12;96.08;98942.84;331597;29;4562;-84
2023/12/31 00:32:53;;;;;;;5.25;3.20;;;;;;;4.08;96.03;98939.47;329439;29;16957;-84
2023/12/31 00:33:05;;;;;;;6.63;3.17;;;;;;;4.08;96.29;98938.63;327495;29;4691;-83
2023/12/31 00:33:18;;;;;;;6.53;3.25;;;;;;;4.06;95.79;98935.25;331064;29;16300;-83
2023/12/31 00:33:30;;;;;;;4.25;2.70;;;;;;;4.00;95.51;98938.75;333491;29;5429;-83
2023/12/31 00:33:43;;;;;;;3.40;2.30;;;;;;;3.96;95.59;98943.13;332209;29;11946;-83
2023/12/31 00:33:56;;;;;;;4.53;2.58;;;;;;;3.99;96.13;98932.78;334392;29;4584;-84
2023/12/31 00:34:10;;;;;;;5.82;2.60;;;;;;;4.00;95.95;98934.50;332022;29;12302;-84
2023/12/31 00:34:22;;;;;;;4.93;2.38;;;;;;;4.02;96.61;98941.31;334711;29;4542;-82
2023/12/31 00:34:34;;;;;;;3.45;2.17;;;;;;;4.05;96.21;98938.69;329136;29;18315;-83
2023/12/31 00:34:46;;;;;;;3.85;2.13;;;;;;;4.04;96.19;98930.13;330009;29;17994;-83
2023/12/31 00:34:58;;;;;;;4.32;2.20;;;;;;;3.97;95.87;98939.66;326654;29;4564;-84
2023/12/31 00:35:10;;;;;;;4.35;2.10;;;;;;;3.98;95.99;98933.66;330563;29;18344;-84
2023/12/31 00:35:23;;;;;;;3.13;1.95;;;;;;;3.92;94.87;98938.88;331767;29;4602;-83
2023/12/31 00:35:35;;;;;;;4.88;2.20;;;;;;;3.96;95.46;98939.69;328743;29;17552;-84
2023/12/31 00:35:47;;;;;;;4.97;2.40;;;;;;;3.92;96.27;98935.47;331939;29;4536;-84
2023/12/31 00:36:00;;;;;;;4.88;2.25;;;;;;;3.95;97.11;98935.44;325154;29;4572;-83
2023/12/31 00:36:13;;;;;;;4.10;2.35;;;;;;;3.99;96.54;98932.78;331181;29;4590;-84
2023/12/31 00:36:25;;;;;;;4.30;2.22;;;;;;;4.04;96.80;98929.28;328183;29;18274;-83
2023/12/31 00:36:38;;;;;;;3.63;1.98;;;;;;;4.07;96.96;98935.22;331855;29;4628;-83
2023/12/31 00:36:50;;;;;;;3.72;2.20;;;;;;;4.11;97.20;98930.88;330261;29;17942;-84
2023/12/31 00:37:05;;;;;;;4.70;2.47;;;;;;;4.15;97.09;98932.50;334838;29;4743;-81
2023/12/31 00:37:17;;;;;;;6.40;2.55;;;;;;;4.16;97.66;98932.47;332474;28;18272;-83
2023/12/31 00:37:29;;;;;;;7.60;2.60;;;;;;;4.18;97.93;98927.31;335970;28;4583;-83
2023/12/31 00:37:41;;;;;;;5.90;2.60;;;;;;;4.19;97.65;98934.16;334088;28;16566;-84
2023/12/31 00:37:53;;;;;;;3.70;2.33;;;;;;;4.23;97.84;98930.66;336034;28;4560;-84
2023/12/31 00:38:05;;;;;;;2.70;1.92;;;;;;;4.24;97.41;98927.19;332401;29;18380;-83
2023/12/31 00:38:18;;;;;;;2.60;1.83;;;;;;;4.23;97.65;98929.81;334837;29;4543;-82
2023/12/31 00:38:30;;;;;;;4.00;1.90;;;;;;;4.27;97.15;98932.28;333382;28;4557;-82
2023/12/31 00:38:43;;;;;;;4.40;2.03;;;;;;;4.27;96.73;98929.72;336234;28;4665;-83
2023/12/31 00:38:56;;;;;;;3.75;2.08;;;;;;;4.28;96.78;98931.41;333189;28;17671;-83
2023/12/31 00:39:08;;;;;;;2.97;2.08;;;;;;;4.26;97.24;98930.56;335680;28;4605;-84
2023/12/31 00:39:20;;;;;;;3.83;2.10;;;;;;;4.28;96.73;98930.56;333091;28;17877;-81
2023/12/31 00:39:32;;;;;;;4.40;2.30;;;;;;;4.26;96.85;98935.72;335403;29;5299;-82
2023/12/31 00:39:44;;;;;;;4.40;2.17;;;;;;;4.31;97.15;98939.06;333705;29;4535;-83
2023/12/31 00:39:57;;;;;;;3.45;1.95;;;;;;;4.32;97.11;98934.75;331306;29;17001;-83
2023/12/31 00:40:09;;;;;;;2.90;1.95;;;;;;;4.37;97.19;98932.97;332876;29;4607;-84
2023/12/31 00:40:21;;;;;;;4.72;2.53;;;;;;;4.32;97.15;98930.47;330175;29;19033;-84
2023/12/31 00:40:33;;;;;;;5.47;2.70;;;;;;;4.28;97.28;98933.97;331878;29;4591;-83
2023/12/31 00:40:45;;;;;;;4.28;2.45;;;;;;;4.29;97.60;98934.84;329548;29;16788;-84
2023/12/31 00:40:57;;;;;;;3.10;2.30;;;;;;;4.32;97.50;98929.63;332427;29;4623;-83
2023/12/31 00:41:09;;;;;;;3.08;2.25;;;;;;;4.32;97.79;98935.59;332229;29;4647;-84
2023/12/31 00:41:21;;;;;;;3.38;2.20;;;;;;;4.32;97.78;98930.47;329291;29;18070;-84
2023/12/31 00:41:34;;;;;;;3.95;2.15;;;;;;;4.34;98.39;98933.00;332336;29;4600;-84
2023/12/31 00:41:46;;;;;;;4.60;2.40;;;;;;;4.37;98.15;98935.53;333330;29;4545;-84
2023/12/31 00:41:58;;;;;;;3.85;2.20;;;;;;;4.36;97.99;98932.09;331126;29;17893;-82
2023/12/31 00:42:10;;;;;;;3.42;2.15;;;;;;;4.38;98.30;98930.34;332703;29;4740;-82
2023/12/31 00:42:22;;;;;;;3.42;2.08;;;;;;;4.40;98.05;98930.31;329984;29;17964;-83
2023/12/31 00:42:35;;;;;;;3.17;2.13;;;;;;;4.42;97.88;98931.13;331993;29;4568;-83
2023/12/31 00:42:48;;;;;;;3.25;2.22;;;;;;;4.43;98.10;98926.84;329593;29;17717;-81
2023/12/31 00:43:00;;;;;;;4.13;2.35;;;;;;;4.48;97.86;98935.31;332801;29;4544;-83
2023/12/31 00:43:12;;;;;;;4.40;2.30;;;;;;;4.50;97.90;98928.41;319798;29;7284;-83
2023/12/31 00:43:24;;;;;;;4.07;2.05;;;;;;;4.53;97.52;98924.06;329810;29;15887;-83
2023/12/31 00:43:36;;;;;;;4.10;2.17;;;;;;;4.55;97.56;98936.91;328054;29;17481;-83
2023/12/31 00:43:48;;;;;;;3.78;2.00;;;;;;;4.55;97.58;98932.59;332194;29;4569;-84
2023/12/31 00:44:00;;;;;;;4.15;2.10;;;;;;;4.58;96.99;98931.69;332641;29;4631;-83
2023/12/31 00:44:12;;;;;;;5.75;2.40;;;;;;;4.53;97.36;98929.22;330908;29;18107;-81
2023/12/31 00:44:24;;;;;;;5.90;2.40;;;;;;;4.54;97.42;98930.06;332104;29;4709;-83
2023/12/31 00:44:36;;;;;;;4.57;2.20;;;;;;;4.54;97.59;98932.63;330065;29;4745;-82
2023/12/31 00:44:48;;;;;;;4.50;2.30;;;;;;;4.53;97.39;98929.22;332905;29;4754;-82
2023/12/31 00:45:00;;;;;;;4.07;2.25;;;;;;;4.54;97.58;98930.06;331546;29;4616;-82
2023/12/31 00:45:12;;;;;;;3.55;2.15;;;;;;;4.57;98.00;98935.16;328274;29;17702;-81
2023/12/31 00:45:25;;;;;;;3.03;2.00;;;;;;;4.60;97.20;98924.78;331739;29;5718;-83
2023/12/31 00:45:37;;;;;;;3.30;2.25;;;;;;;4.61;97.08;98926.50;319736;29;16454;-84
2023/12/31 00:45:49;;;;;;;4.07;2.50;;;;;;;4.59;97.14;98923.09;329945;29;4573;-83
2023/12/31 00:46:01;;;;;;;5.53;2.97;;;;;;;4.58;96.89;98921.41;330243;29;4549;-83
2023/12/31 00:46:13;;;;;;;5.60;2.97;;;;;;;4.57;97.03;98932.59;329193;29;17808;-83
2023/12/31 00:46:25;;;;;;;4.13;2.55;;;;;;;4.60;96.43;98929.94;331076;29;4564;-84
2023/12/31 00:46:38;;;;;;;4.00;2.70;;;;;;;4.60;96.55;98932.50;328830;29;4687;-83
2023/12/31 00:46:50;;;;;;;3.85;2.60;;;;;;;4.64;96.68;98931.56;332459;29;4577;-84
2023/12/31 00:47:02;;;;;;;3.35;2.35;;;;;;;4.64;96.98;98926.41;328778;29;18049;-83
2023/12/31 00:47:14;;;;;;;3.10;1.98;;;;;;;4.66;96.55;98923.81;331348;29;4600;-82
2023/12/31 00:47:26;;;;;;;3.53;2.20;;;;;;;4.62;96.55;98925.59;329535;29;12007;-84
2023/12/31 00:47:39;;;;;;;3.53;2.47;;;;;;;4.64;96.39;98926.41;331090;29;5155;-82
2023/12/31 00:47:51;;;;;;;4.50;2.42;;;;;;;4.58;96.23;98922.22;331260;29;5255;-83
2023/12/31 00:48:03;;;;;;;5.20;2.35;;;;;;;4.47;96.56;98928.50;319837;29;18263;-84
2023/12/31 00:48:15;;;;;;;4.65;2.28;;;;;;;4.31;97.19;98928.78;329970;29;4570;-83
2023/12/31 00:48:28;;;;;;;4.38;2.20;;;;;;;4.29;97.92;98925.38;329200;29;4745;-82
2023/12/31 00:48:40;;;;;;;3.47;2.03;;;;;;;4.31;98.12;98928.78;330497;29;4558;-84
2023/12/31 00:48:52;;;;;;;2.90;2.00;;;;;;;4.33;98.17;98932.16;330137;29;4579;-83
2023/12/31 00:49:04;;;;;;;3.63;2.03;;;;;;;4.36;97.92;98931.25;329259;29;16238;-83
2023/12/31 00:49:17;;;;;;;3.60;2.13;;;;;;;4.35;97.94;98925.28;332636;28;4558;-84
2023/12/31 00:49:29;;;;;;;3.10;2.00;;;;;;;4.42;97.78;98930.31;329174;29;17955;-83
2023/12/31 00:49:41;;;;;;;2.80;2.00;;;;;;;4.46;97.69;98929.34;332578;29;4569;-83
2023/12/31 00:49:53;;;;;;;3.28;2.15;;;;;;;4.50;98.02;98928.41;330850;29;5066;-83
2023/12/31 00:50:05;;;;;;;3.30;2.20;;;;;;;4.54;97.97;98924.91;333103;29;4561;-83
2023/12/31 00:50:19;;;;;;;3.35;2.28;;;;;;;4.57;97.71;98930.84;332376;29;4647;-83
2023/12/31 00:50:32;;;;;;;3.90;2.20;;;;;;;4.54;97.09;98924.91;329964;29;16639;-82
2023/12/31 00:50:44;;;;;;;4.30;2.35;;;;;;;4.53;97.70;98924.06;326895;29;17750;-84
2023/12/31 00:50:56;;;;;;;4.00;2.28;;;;;;;4.53;98.10;98923.22;333402;29;4634;-84
2023/12/31 00:51:08;;;;;;;4.45;2.10;;;;;;;4.53;98.04;98923.22;330930;29;8997;-83
2023/12/31 00:51:21;;;;;;;4.63;2.22;;;;;;;4.53;98.15;98928.38;332889;29;4593;-84
2023/12/31 00:51:33;;;;;;;5.30;2.58;;;;;;;4.55;97.72;98924.03;329969;29;12506;-84
2023/12/31 00:51:45;;;;;;;5.65;2.72;;;;;;;4.55;97.48;98926.63;333849;28;4778;-84
2023/12/31 00:51:57;;;;;;;4.65;2.50;;;;;;;4.58;97.87;98921.41;334982;28;4560;-83
2023/12/31 00:52:09;;;;;;;3.70;2.13;;;;;;;4.60;97.76;98924.78;329709;29;16436;-84
2023/12/31 00:52:21;;;;;;;3.55;2.10;;;;;;;4.63;97.87;98927.31;332581;29;18005;-83
2023/12/31 00:52:33;;;;;;;3.30;2.03;;;;;;;4.66;97.70;98924.66;335564;29;5130;-83
2023/12/31 00:52:45;;;;;;;3.75;2.30;;;;;;;4.69;97.38;98923.75;331889;29;18248;-84
2023/12/31 00:52:58;;;;;;;3.78;2.35;;;;;;;4.71;96.93;98922.84;334228;29;4570;-83
2023/12/31 00:53:10;;;;;;;3.78;2.30;;;;;;;4.73;97.19;98923.66;324032;28;17780;-84
2023/12/31 00:53:22;;;;;;;4.75;2.13;;;;;;;4.74;97.06;98922.78;336943;28;4552;-83
2023/12/31 00:53:35;;;;;;;5.60;2.20;;;;;;;4.75;96.50;98921.91;327578;28;16335;-83
2023/12/31 00:53:47;;;;;;;4.28;2.20;;;;;;;4.73;97.16;98926.25;334883;29;4630;-83
2023/12/31 00:54:00;;;;;;;3.63;2.28;;;;;;;4.73;96.76;98918.53;330478;29;4652;-84
2023/12/31 00:54:12;;;;;;;2.78;2.00;;;;;;;4.74;96.77;98925.34;335086;29;4574;-84
2023/12/31 00:54:24;;;;;;;3.55;2.03;;;;;;;4.76;96.94;98920.19;332408;29;4550;-84
2023/12/31 00:54:36;;;;;;;4.38;2.05;;;;;;;4.78;96.68;98924.41;334595;29;4569;-84
2023/12/31 00:54:50;;;;;;;4.40;2.03;;;;;;;4.79;96.76;98920.97;334334;29;4636;-83
2023/12/31 00:55:02;;;;;;;4.40;2.30;;;;;;;4.84;96.56;98917.44;331602;29;17714;-82
2023/12/31 00:55:14;;;;;;;3.65;2.17;;;;;;;4.88;96.51;98919.91;333588;29;4583;-83
2023/12/31 00:55:26;;;;;;;3.30;2.20;;;;;;;4.86;96.49;98918.25;331125;29;17564;-81
2023/12/31 00:55:39;;;;;;;5.15;2.50;;;;;;;4.85;96.80;98913.97;332659;29;4562;-81
2023/12/31 00:55:51;;;;;;;6.15;2.75;;;;;;;4.83;96.72;98926.91;329928;29;19104;-83
2023/12/31 00:56:03;;;;;;;6.60;2.53;;;;;;;4.82;96.74;98914.91;330875;29;4764;-83
2023/12/31 00:56:15;;;;;;;5.22;2.30;;;;;;;4.83;96.67;98916.59;328657;29;4769;-84
2023/12/31 00:56:27;;;;;;;4.22;2.20;;;;;;;4.84;96.53;98917.44;327447;29;4794;-84
2023/12/31 00:56:40;;;;;;;3.25;2.20;;;;;;;4.78;96.63;98911.53;331428;29;9108;-83
2023/12/31 00:56:52;;;;;;;3.90;2.30;;;;;;;4.76;96.20;98910.72;330010;29;16949;-84
2023/12/31 00:57:04;;;;;;;4.28;2.25;;;;;;;4.78;96.42;98919.25;332383;29;4571;-83
2023/12/31 00:57:17;;;;;;;4.28;2.28;;;;;;;4.74;96.64;98917.63;330517;29;16890;-83
2023/12/31 00:57:29;;;;;;;4.38;2.25;;;;;;;4.74;96.88;98916.78;332633;29;4580;-84
2023/12/31 00:57:41;;;;;;;3.40;2.00;;;;;;;4.74;96.85;98915.06;330596;29;17915;-84
2023/12/31 00:57:53;;;;;;;4.20;2.05;;;;;;;4.77;96.80;98912.44;332060;29;5064;-83
2023/12/31 00:58:07;;;;;;;4.63;2.20;;;;;;;4.77;97.11;98922.72;328506;29;4618;-83
2023/12/31 00:58:19;;;;;;;3.55;2.13;;;;;;;4.78;97.13;98914.09;332315;29;15770;-84
2023/12/31 00:58:31;;;;;;;3.25;2.13;;;;;;;4.78;96.55;98908.97;331205;29;16912;-83
2023/12/31 00:58:43;;;;;;;2.85;2.05;;;;;;;4.78;96.99;98914.09;333512;29;4537;-83
2023/12/31 00:58:56;;;;;;;2.75;2.05;;;;;;;4.82;96.96;98914.06;327709;29;4684;-83
2023/12/31 00:59:08;;;;;;;4.00;2.13;;;;;;;4.82;96.33;98914.06;332246;29;17068;-84
2023/12/31 00:59:20;;;;;;;4.30;2.20;;;;;;;4.82;96.43;98911.47;333825;29;4534;-84
2023/12/31 00:59:32;;;;;;;3.33;2.30;;;;;;;4.79;96.95;98915.81;324635;29;4979;-84
2023/12/31 00:59:44;;;;;;;2.83;2.10;;;;;;;4.78;96.50;98919.25;332435;29;4583;-84